createdAt,value
2019-04-27T00:01:35.417Z,9.100000
2019-04-27T00:04:05.700Z,8.900000
2019-04-27T00:06:38.179Z,8.900000
2019-04-27T00:09:11.611Z,7.600000
2019-04-27T00:11:45.374Z,7.600000
2019-04-27T00:14:18.137Z,7.200000
2019-04-27T00:16:50.802Z,7.200000
2019-04-27T00:19:23.239Z,6.500000
2019-04-27T00:21:53.640Z,6.500000
2019-04-27T00:24:23.966Z,7.700000
2019-04-27T00:26:54.432Z,7.700000
2019-04-27T00:29:25.979Z,10.200000
2019-04-27T00:31:56.459Z,10.200000
2019-04-27T00:34:26.838Z,5.800000
2019-04-27T00:36:57.407Z,5.800000
2019-04-27T00:39:27.768Z,6.500000
2019-04-27T00:41:58.114Z,6.500000
2019-04-27T00:44:28.480Z,6.400000
2019-04-27T00:46:58.858Z,6.400000
2019-04-27T00:49:29.296Z,5.800000
2019-04-27T00:51:59.678Z,5.800000
2019-04-27T00:54:30.069Z,6.500000
2019-04-27T00:57:00.381Z,6.500000
2019-04-27T00:59:30.644Z,4.900000
2019-04-27T01:02:01.005Z,4.900000
2019-04-27T01:04:31.360Z,4.800000
2019-04-27T01:07:02.943Z,4.800000
2019-04-27T01:09:33.878Z,5.400000
2019-04-27T01:12:04.420Z,5.400000
2019-04-27T01:14:34.759Z,5.000000
2019-04-27T01:17:05.101Z,5.000000
2019-04-27T01:19:35.373Z,6.100000
2019-04-27T01:22:05.727Z,6.100000
2019-04-27T01:24:36.088Z,5.100000
2019-04-27T01:27:06.323Z,5.100000
2019-04-27T01:29:36.695Z,3.400000
2019-04-27T01:32:08.654Z,3.400000
2019-04-27T01:34:39.647Z,5.100000
2019-04-27T01:37:10.129Z,5.100000
2019-04-27T01:39:40.502Z,3.500000
2019-04-27T01:42:10.851Z,3.500000
2019-04-27T01:44:41.198Z,6.000000
2019-04-27T01:47:11.566Z,6.000000
2019-04-27T01:49:41.910Z,3.700000
2019-04-27T01:52:12.279Z,3.700000
2019-04-27T01:54:42.713Z,6.400000
2019-04-27T01:57:13.083Z,6.400000
2019-04-27T01:59:43.443Z,5.900000
2019-04-27T02:02:13.892Z,5.900000
2019-04-27T02:04:44.242Z,7.600000
2019-04-27T02:07:14.588Z,7.600000
2019-04-27T02:09:49.993Z,6.900000
2019-04-27T02:12:20.277Z,6.900000
2019-04-27T02:14:50.626Z,8.000000
2019-04-27T02:17:25.906Z,8.000000
2019-04-27T02:19:56.203Z,6.800000
2019-04-27T02:22:26.705Z,6.800000
2019-04-27T02:24:56.980Z,6.500000
2019-04-27T02:27:28.706Z,6.500000
2019-04-27T02:29:59.317Z,5.800000
2019-04-27T02:32:34.717Z,5.800000
2019-04-27T02:35:05.005Z,7.500000
2019-04-27T02:37:35.368Z,7.500000
2019-04-27T02:40:05.705Z,8.000000
2019-04-27T02:42:36.047Z,8.000000
2019-04-27T02:45:06.472Z,7.800000
2019-04-27T02:47:36.937Z,7.800000
2019-04-27T02:50:07.257Z,8.500000
2019-04-27T02:52:40.293Z,8.500000
2019-04-27T02:55:10.843Z,7.000000
2019-04-27T02:57:41.289Z,7.000000
2019-04-27T03:00:11.651Z,7.000000
2019-04-27T03:02:42.093Z,7.000000
2019-04-27T03:05:13.078Z,7.900000
2019-04-27T03:07:43.713Z,7.900000
2019-04-27T03:10:14.057Z,7.600000
2019-04-27T03:12:44.428Z,7.600000
2019-04-27T03:15:14.815Z,8.500000
2019-04-27T03:17:45.136Z,8.500000
2019-04-27T03:20:15.468Z,5.500000
2019-04-27T03:22:45.803Z,5.500000
2019-04-27T03:25:16.159Z,6.600000
2019-04-27T03:27:46.384Z,6.600000
2019-04-27T03:30:16.736Z,9.900000
2019-04-27T03:32:54.685Z,9.900000
2019-04-27T03:35:26.389Z,6.100000
2019-04-27T03:37:56.988Z,6.100000
2019-04-27T03:40:27.292Z,8.100000
2019-04-27T03:42:59.490Z,8.400000
2019-04-27T03:45:30.213Z,8.400000
2019-04-27T03:48:00.657Z,6.800000
2019-04-27T03:50:31.097Z,6.800000
2019-04-27T03:53:01.461Z,6.700000
2019-04-27T03:55:31.698Z,6.700000
2019-04-27T03:58:02.029Z,4.900000
2019-04-27T04:00:32.390Z,4.900000
2019-04-27T04:03:02.849Z,6.100000
2019-04-27T04:05:33.253Z,6.100000
2019-04-27T04:08:03.614Z,8.200000
2019-04-27T04:10:34.142Z,8.200000
2019-04-27T04:13:04.501Z,5.400000
2019-04-27T04:15:34.946Z,5.400000
2019-04-27T04:18:05.176Z,5.900000
2019-04-27T04:20:40.660Z,5.900000
2019-04-27T04:23:15.997Z,7.500000
2019-04-27T04:25:46.379Z,7.500000
2019-04-27T04:28:16.677Z,6.500000
2019-04-27T04:30:47.123Z,6.500000
2019-04-27T04:33:20.200Z,5.800000
2019-04-27T04:35:51.083Z,5.800000
2019-04-27T04:38:21.470Z,9.400000
2019-04-27T04:40:52.161Z,9.400000
2019-04-27T04:43:22.465Z,6.600000
2019-04-27T04:45:52.679Z,6.600000
2019-04-27T04:48:23.046Z,7.200000
2019-04-27T04:50:53.373Z,7.200000
2019-04-27T04:53:23.808Z,5.800000
2019-04-27T04:55:54.253Z,5.800000
2019-04-27T04:58:24.596Z,7.200000
2019-04-27T05:00:54.911Z,7.200000
2019-04-27T05:03:25.155Z,6.700000
2019-04-27T05:05:55.510Z,6.700000
2019-04-27T05:08:25.953Z,8.800000
2019-04-27T05:10:56.305Z,8.800000
2019-04-27T05:13:26.574Z,6.800000
2019-04-27T05:15:58.721Z,6.800000
2019-04-27T05:18:29.443Z,7.900000
2019-04-27T05:20:59.794Z,7.900000
2019-04-27T05:23:30.163Z,6.800000
2019-04-27T05:26:00.501Z,6.800000
2019-04-27T05:28:30.750Z,6.300000
2019-04-27T05:31:01.124Z,6.300000
2019-04-27T05:33:31.471Z,8.300000
2019-04-27T05:36:01.848Z,8.300000
2019-04-27T05:38:32.175Z,6.300000
2019-04-27T05:41:02.542Z,6.300000
2019-04-27T05:43:33.352Z,5.300000
2019-04-27T05:46:03.739Z,5.300000
2019-04-27T05:48:33.979Z,3.600000
2019-04-27T05:51:04.344Z,3.600000
2019-04-27T05:53:34.578Z,4.300000
2019-04-27T05:56:05.026Z,4.300000
2019-04-27T05:58:35.464Z,5.300000
2019-04-27T06:01:05.831Z,5.300000
2019-04-27T06:03:36.532Z,6.600000
2019-04-27T06:06:06.828Z,6.600000
2019-04-27T06:08:39.134Z,5.500000
2019-04-27T06:11:09.755Z,5.500000
2019-04-27T06:13:40.074Z,8.100000
2019-04-27T06:16:10.426Z,8.100000
2019-04-27T06:18:40.770Z,6.300000
2019-04-27T06:21:11.127Z,6.300000
2019-04-27T06:23:41.473Z,6.800000
2019-04-27T06:26:11.909Z,6.800000
2019-04-27T06:28:42.363Z,5.200000
2019-04-27T06:31:12.630Z,5.200000
2019-04-27T06:33:43.211Z,5.800000
2019-04-27T06:36:13.539Z,5.800000
2019-04-27T06:38:43.885Z,6.400000
2019-04-27T06:41:14.233Z,6.400000
2019-04-27T06:43:44.595Z,5.700000
2019-04-27T06:46:14.939Z,5.700000
2019-04-27T06:48:45.211Z,5.900000
2019-04-27T06:51:15.569Z,5.900000
2019-04-27T06:53:45.806Z,4.100000
2019-04-27T06:56:16.151Z,4.100000
2019-04-27T06:58:46.684Z,6.700000
2019-04-27T07:01:17.048Z,6.700000
2019-04-27T07:03:48.669Z,5.100000
2019-04-27T07:06:19.037Z,5.100000
2019-04-27T07:08:49.798Z,6.500000
2019-04-27T07:11:20.291Z,6.500000
2019-04-27T07:13:50.694Z,5.900000
2019-04-27T07:16:21.178Z,5.900000
2019-04-27T07:18:51.501Z,4.200000
2019-04-27T07:21:24.799Z,4.200000
2019-04-27T07:23:55.283Z,4.800000
2019-04-27T07:26:25.637Z,4.800000
2019-04-27T07:28:56.000Z,3.000000
2019-04-27T07:31:26.384Z,3.000000
2019-04-27T07:33:56.738Z,3.700000
2019-04-27T07:36:28.833Z,3.700000
2019-04-27T07:38:59.973Z,6.200000
2019-04-27T07:41:30.458Z,6.200000
2019-04-27T07:44:00.773Z,3.100000
2019-04-27T07:46:31.851Z,3.100000
2019-04-27T07:49:02.165Z,4.500000
2019-04-27T07:51:34.458Z,4.500000
2019-04-27T07:54:04.853Z,3.800000
2019-04-27T07:56:35.429Z,3.800000
2019-04-27T07:59:05.788Z,5.800000
2019-04-27T08:01:36.204Z,5.800000
2019-04-27T08:04:06.525Z,5.700000
2019-04-27T08:06:38.590Z,5.700000
2019-04-27T08:09:09.463Z,7.300000
2019-04-27T08:11:39.814Z,7.300000
2019-04-27T08:14:10.093Z,5.300000
2019-04-27T08:16:40.471Z,5.300000
2019-04-27T08:19:10.736Z,6.700000
2019-04-27T08:21:44.308Z,6.700000
2019-04-27T08:24:16.882Z,5.900000
2019-04-27T08:26:47.431Z,5.900000
2019-04-27T08:29:18.505Z,5.800000
2019-04-27T08:31:48.937Z,5.800000
2019-04-27T08:34:19.275Z,5.200000
2019-04-27T08:36:49.960Z,5.200000
2019-04-27T08:39:20.463Z,11.700000
2019-04-27T08:41:50.947Z,6.000000
2019-04-27T08:44:21.238Z,6.000000
2019-04-27T08:46:51.560Z,6.700000
2019-04-27T08:49:21.873Z,6.700000
2019-04-27T08:52:01.640Z,5.100000
2019-04-27T08:54:32.254Z,5.100000
2019-04-27T08:57:02.989Z,5.900000
2019-04-27T08:59:33.269Z,5.900000
2019-04-27T09:02:03.596Z,8.500000
2019-04-27T09:04:33.941Z,8.500000
2019-04-27T09:07:04.329Z,4.900000
2019-04-27T09:09:34.589Z,4.900000
2019-04-27T09:12:04.827Z,5.000000
2019-04-27T09:14:35.269Z,5.000000
2019-04-27T09:17:05.842Z,6.900000
2019-04-27T09:19:36.666Z,6.900000
2019-04-27T09:22:13.465Z,4.200000
2019-04-27T09:24:46.012Z,4.200000
2019-04-27T09:27:17.980Z,6.200000
2019-04-27T09:29:51.573Z,6.200000
2019-04-27T09:32:21.844Z,4.800000
2019-04-27T09:34:52.317Z,4.800000
2019-04-27T09:37:22.698Z,6.300000
2019-04-27T09:39:53.157Z,6.300000
2019-04-27T09:42:23.610Z,6.100000
2019-04-27T09:44:55.745Z,6.100000
2019-04-27T09:47:26.719Z,5.700000
2019-04-27T09:49:57.383Z,5.700000
2019-04-27T09:52:28.638Z,7.600000
2019-04-27T09:54:59.147Z,7.600000
2019-04-27T09:57:29.501Z,5.300000
2019-04-27T09:59:59.700Z,5.300000
2019-04-27T10:02:30.085Z,5.900000
2019-04-27T10:05:00.350Z,5.900000
2019-04-27T10:07:30.634Z,11.000000
2019-04-27T10:10:00.830Z,11.000000
2019-04-27T10:12:34.195Z,8.500000
2019-04-27T10:15:06.117Z,8.500000
2019-04-27T10:17:36.611Z,8.300000
2019-04-27T10:20:07.959Z,8.300000
2019-04-27T10:22:43.229Z,8.100000
2019-04-27T10:25:13.935Z,8.100000
2019-04-27T10:27:45.773Z,8.800000
2019-04-27T10:30:16.238Z,8.800000
2019-04-27T10:32:46.796Z,8.300000
2019-04-27T10:35:17.878Z,8.300000
2019-04-27T10:37:48.355Z,6.800000
2019-04-27T10:40:18.699Z,6.800000
2019-04-27T10:42:49.373Z,9.900000
2019-04-27T10:45:20.231Z,9.900000
2019-04-27T10:47:50.543Z,4.200000
2019-04-27T10:50:21.072Z,4.200000
2019-04-27T10:52:53.793Z,7.300000
2019-04-27T10:55:26.070Z,7.300000
2019-04-27T10:57:56.621Z,6.900000
2019-04-27T11:00:27.235Z,6.900000
2019-04-27T11:02:58.427Z,7.800000
2019-04-27T11:05:31.215Z,7.800000
2019-04-27T11:08:01.818Z,7.700000
2019-04-27T11:10:32.214Z,7.700000
2019-04-27T11:13:02.536Z,6.100000
2019-04-27T11:15:32.907Z,6.100000
2019-04-27T11:18:03.203Z,6.800000
2019-04-27T11:20:33.570Z,6.800000
2019-04-27T11:23:09.177Z,8.600000
2019-04-27T11:25:39.772Z,8.600000
2019-04-27T11:28:10.281Z,7.300000
2019-04-27T11:30:40.608Z,7.300000
2019-04-27T11:33:10.822Z,8.300000
2019-04-27T11:35:41.403Z,8.300000
2019-04-27T11:38:11.767Z,5.700000
2019-04-27T11:40:42.969Z,5.700000
2019-04-27T11:43:13.268Z,9.500000
2019-04-27T11:45:45.603Z,9.500000
2019-04-27T11:48:16.236Z,10.400000
2019-04-27T11:50:46.620Z,10.400000
2019-04-27T11:53:22.345Z,6.900000
2019-04-27T11:55:53.450Z,6.900000
2019-04-27T11:58:26.420Z,5.100000
2019-04-27T12:00:57.273Z,5.100000
2019-04-27T12:03:27.550Z,6.400000
2019-04-27T12:06:00.056Z,6.400000
2019-04-27T12:08:30.722Z,5.700000
2019-04-27T12:11:01.062Z,5.700000
2019-04-27T12:13:31.486Z,5.700000
2019-04-27T12:16:01.815Z,5.700000
2019-04-27T12:18:32.169Z,5.500000
2019-04-27T12:21:02.527Z,5.500000
2019-04-27T12:23:37.083Z,5.300000
2019-04-27T12:26:11.592Z,5.300000
2019-04-27T12:28:41.941Z,6.100000
2019-04-27T12:31:12.310Z,6.100000
2019-04-27T12:33:42.641Z,5.900000
2019-04-27T12:36:12.907Z,6.600000
2019-04-27T12:38:43.398Z,6.600000
2019-04-27T12:41:13.867Z,6.200000
2019-04-27T12:43:45.884Z,6.200000
2019-04-27T12:46:16.562Z,6.700000
2019-04-27T12:48:46.866Z,6.700000
2019-04-27T12:51:17.413Z,3.400000
2019-04-27T12:53:50.774Z,3.400000
2019-04-27T12:56:23.052Z,2.800000
2019-04-27T12:58:53.823Z,2.800000
2019-04-27T13:01:25.733Z,3.600000
2019-04-27T13:03:58.574Z,3.600000
2019-04-27T13:06:29.506Z,2.600000
2019-04-27T13:08:59.960Z,2.600000
2019-04-27T13:11:30.308Z,4.400000
2019-04-27T13:14:00.686Z,4.400000
2019-04-27T13:16:31.079Z,4.300000
2019-04-27T13:19:01.615Z,4.300000
2019-04-27T13:21:32.121Z,4.500000
2019-04-27T13:24:06.317Z,4.500000
2019-04-27T13:26:38.124Z,6.700000
2019-04-27T13:29:08.458Z,6.700000
2019-04-27T13:31:38.842Z,4.600000
2019-04-27T13:34:09.206Z,4.600000
2019-04-27T13:36:39.477Z,4.600000
2019-04-27T13:39:10.001Z,4.600000
2019-04-27T13:41:40.325Z,6.400000
2019-04-27T13:44:10.697Z,6.400000
2019-04-27T13:46:41.008Z,4.900000
2019-04-27T13:49:11.451Z,4.900000
2019-04-27T13:51:41.842Z,2.800000
2019-04-27T13:54:18.843Z,2.800000
2019-04-27T13:56:56.279Z,6.300000
2019-04-27T13:59:26.702Z,6.300000
2019-04-27T14:01:57.106Z,4.700000
2019-04-27T14:04:27.448Z,4.700000
2019-04-27T14:07:02.865Z,3.400000
2019-04-27T14:09:39.242Z,3.400000
2019-04-27T14:12:14.802Z,6.500000
2019-04-27T14:14:45.136Z,6.500000
2019-04-27T14:17:15.481Z,3.800000
2019-04-27T14:19:45.842Z,3.800000
2019-04-27T14:22:18.100Z,5.700000
2019-04-27T14:24:48.900Z,5.700000
2019-04-27T14:27:19.478Z,2.800000
2019-04-27T14:29:49.967Z,2.800000
2019-04-27T14:32:25.429Z,2.100000
2019-04-27T14:34:55.787Z,2.100000
2019-04-27T14:37:26.205Z,2.500000
2019-04-27T14:39:57.905Z,2.500000
2019-04-27T14:42:30.023Z,1.800000
2019-04-27T14:45:00.289Z,1.800000
2019-04-27T14:47:30.648Z,2.600000
2019-04-27T14:50:00.999Z,2.600000
2019-04-27T14:52:31.329Z,5.200000
2019-04-27T14:55:01.868Z,5.200000
2019-04-27T14:57:32.140Z,4.400000
2019-04-27T15:00:02.559Z,4.400000
2019-04-27T15:02:32.941Z,15.300000
2019-04-27T15:05:03.275Z,15.300000
2019-04-27T15:07:34.312Z,6.400000
2019-04-27T15:10:04.834Z,6.400000
2019-04-27T15:12:35.310Z,8.000000
2019-04-27T15:15:05.722Z,8.000000
2019-04-27T15:17:41.235Z,5.300000
2019-04-27T15:20:11.445Z,5.300000
2019-04-27T15:22:41.972Z,4.700000
2019-04-27T15:25:15.213Z,4.700000
2019-04-27T15:27:46.056Z,5.600000
2019-04-27T15:30:17.792Z,5.600000
2019-04-27T15:32:48.304Z,4.800000
2019-04-27T15:35:21.364Z,4.800000
2019-04-27T15:37:52.007Z,2.200000
2019-04-27T15:40:22.352Z,2.200000
2019-04-27T15:42:53.187Z,5.200000
2019-04-27T15:45:24.431Z,5.200000
2019-04-27T15:47:55.019Z,4.000000
2019-04-27T15:50:30.775Z,4.000000
2019-04-27T15:53:02.946Z,3.300000
2019-04-27T15:55:39.400Z,3.300000
2019-04-27T15:58:10.245Z,2.600000
2019-04-27T16:00:40.626Z,2.600000
2019-04-27T16:03:10.990Z,3.900000
2019-04-27T16:05:41.521Z,3.700000
2019-04-27T16:08:15.390Z,3.700000
2019-04-27T16:10:46.162Z,3.300000
2019-04-27T16:13:18.206Z,3.300000
2019-04-27T16:15:54.200Z,2.700000
2019-04-27T16:18:31.034Z,2.700000
2019-04-27T16:21:10.594Z,2.900000
2019-04-27T16:23:48.014Z,2.900000
2019-04-27T16:26:18.474Z,3.500000
2019-04-27T16:28:52.984Z,3.500000
2019-04-27T16:31:24.899Z,5.500000
2019-04-27T16:34:02.631Z,5.500000
2019-04-27T16:36:33.211Z,3.700000
2019-04-27T16:39:07.740Z,3.700000
2019-04-27T16:41:40.477Z,4.300000
2019-04-27T16:44:12.281Z,4.300000
2019-04-27T16:46:43.112Z,4.200000
2019-04-27T16:49:14.974Z,4.200000
2019-04-27T16:51:45.607Z,5.000000
2019-04-27T16:54:17.501Z,5.000000
2019-04-27T16:57:00.193Z,4.700000
2019-04-27T16:59:43.318Z,4.700000
2019-04-27T17:02:17.279Z,4.600000
2019-04-27T17:04:55.589Z,4.600000
2019-04-27T17:07:37.410Z,4.500000
2019-04-27T17:10:09.390Z,4.500000
2019-04-27T17:12:43.315Z,5.400000
2019-04-27T17:15:16.134Z,5.400000
2019-04-27T17:17:51.510Z,5.800000
2019-04-27T17:20:21.762Z,5.800000
2019-04-27T17:22:53.311Z,4.600000
2019-04-27T17:25:23.825Z,4.600000
2019-04-27T17:27:57.820Z,4.700000
2019-04-27T17:30:39.821Z,3.600000
2019-04-27T17:33:15.213Z,3.600000
2019-04-27T17:35:46.552Z,5.800000
2019-04-27T17:38:18.175Z,5.800000
2019-04-27T17:40:51.649Z,9.400000
2019-04-27T17:43:23.264Z,9.400000
2019-04-27T17:45:53.582Z,6.400000
2019-04-27T17:48:23.887Z,6.400000
2019-04-27T17:50:55.972Z,6.400000
2019-04-27T17:53:32.996Z,6.400000
2019-04-27T17:56:05.983Z,2.700000
2019-04-27T17:58:39.758Z,2.700000
2019-04-27T18:01:14.154Z,6.000000
2019-04-27T18:03:58.423Z,6.000000
2019-04-27T18:06:32.831Z,4.900000
2019-04-27T18:09:03.516Z,4.900000
2019-04-27T18:11:37.339Z,4.100000
2019-04-27T18:14:09.430Z,4.100000
2019-04-27T18:16:43.606Z,4.600000
2019-04-27T18:19:14.026Z,4.600000
2019-04-27T18:21:44.387Z,5.200000
2019-04-27T18:24:14.694Z,5.200000
2019-04-27T18:26:49.537Z,6.900000
2019-04-27T18:29:22.727Z,6.900000
2019-04-27T18:31:58.258Z,3.900000
2019-04-27T18:34:28.743Z,3.900000
2019-04-27T18:36:59.123Z,8.100000
2019-04-27T18:39:29.406Z,8.100000
2019-04-27T18:41:59.791Z,4.400000
2019-04-27T18:44:31.900Z,4.400000
2019-04-27T18:47:03.099Z,6.100000
2019-04-27T18:49:33.449Z,6.100000
2019-04-27T18:52:04.605Z,3.300000
2019-04-27T18:54:38.280Z,3.300000
2019-04-27T18:57:15.109Z,5.700000
2019-04-27T18:59:48.238Z,5.700000
2019-04-27T19:02:18.749Z,8.900000
2019-04-27T19:04:50.173Z,8.900000
2019-04-27T19:07:20.592Z,4.800000
2019-04-27T19:09:51.021Z,4.800000
2019-04-27T19:12:21.334Z,5.300000
2019-04-27T19:14:51.636Z,5.300000
2019-04-27T19:17:22.171Z,3.700000
2019-04-27T19:19:52.387Z,3.700000
2019-04-27T19:22:22.772Z,9.300000
2019-04-27T19:24:53.041Z,9.300000
2019-04-27T19:27:23.525Z,10.400000
2019-04-27T19:29:55.265Z,10.400000
2019-04-27T19:32:25.844Z,5.700000
2019-04-27T19:34:56.545Z,5.700000
2019-04-27T19:37:28.554Z,2.500000
2019-04-27T19:39:59.038Z,2.500000
2019-04-27T19:42:29.333Z,3.600000
2019-04-27T19:44:59.659Z,2.500000
2019-04-27T19:47:30.271Z,2.500000
2019-04-27T19:50:00.741Z,2.400000
2019-04-27T19:52:31.862Z,2.400000
2019-04-27T19:55:02.468Z,5.500000
2019-04-27T19:57:38.159Z,5.500000
2019-04-27T20:00:10.873Z,3.700000
2019-04-27T20:02:41.445Z,3.700000
2019-04-27T20:05:11.980Z,4.600000
2019-04-27T20:07:42.535Z,4.600000
2019-04-27T20:10:13.052Z,3.300000
2019-04-27T20:12:43.556Z,3.300000
2019-04-27T20:15:14.088Z,3.200000
2019-04-27T20:17:45.126Z,3.200000
2019-04-27T20:20:15.510Z,4.400000
2019-04-27T20:22:45.848Z,4.400000
2019-04-27T20:25:16.655Z,3.700000
2019-04-27T20:27:49.399Z,3.700000
2019-04-27T20:30:22.486Z,3.400000
2019-04-27T20:32:53.063Z,3.400000
2019-04-27T20:35:23.445Z,3.600000
2019-04-27T20:37:53.786Z,3.600000
2019-04-27T20:40:24.153Z,2.000000
2019-04-27T20:42:54.503Z,2.000000
2019-04-27T20:45:24.796Z,1.500000
2019-04-27T20:47:55.145Z,1.500000
2019-04-27T20:50:25.498Z,2.200000
2019-04-27T20:52:55.902Z,2.200000
2019-04-27T20:55:26.660Z,1.300000
2019-04-27T20:58:01.615Z,1.300000
2019-04-27T21:00:32.396Z,2.300000
2019-04-27T21:03:02.747Z,2.300000
2019-04-27T21:05:33.118Z,3.100000
2019-04-27T21:08:03.857Z,3.100000
2019-04-27T21:10:36.922Z,3.200000
2019-04-27T21:13:07.463Z,3.200000
2019-04-27T21:15:37.877Z,3.300000
2019-04-27T21:18:08.176Z,3.300000
2019-04-27T21:20:38.628Z,4.200000
2019-04-27T21:23:08.961Z,4.200000
2019-04-27T21:25:39.227Z,4.100000
2019-04-27T21:28:16.457Z,4.100000
2019-04-27T21:30:49.239Z,3.300000
2019-04-27T21:33:21.471Z,3.300000
2019-04-27T21:35:51.930Z,2.200000
2019-04-27T21:38:22.185Z,2.200000
2019-04-27T21:40:52.645Z,4.500000
2019-04-27T21:43:22.989Z,4.500000
2019-04-27T21:45:58.424Z,2.100000
2019-04-27T21:48:28.746Z,2.100000
2019-04-27T21:50:59.086Z,2.000000
2019-04-27T21:53:31.184Z,2.000000
2019-04-27T21:56:01.669Z,2.600000
2019-04-27T21:58:33.394Z,2.600000
2019-04-27T22:01:03.886Z,3.500000
2019-04-27T22:03:34.228Z,3.500000
2019-04-27T22:06:04.456Z,3.000000
2019-04-27T22:08:34.819Z,3.000000
2019-04-27T22:11:05.249Z,3.100000
2019-04-27T22:13:35.502Z,3.100000
2019-04-27T22:16:05.854Z,2.300000
2019-04-27T22:18:36.216Z,2.300000
2019-04-27T22:21:11.690Z,1.900000
2019-04-27T22:23:47.016Z,1.900000
2019-04-27T22:26:17.331Z,3.500000
2019-04-27T22:28:49.472Z,3.500000
2019-04-27T22:31:21.809Z,3.200000
2019-04-27T22:33:54.576Z,3.200000
2019-04-27T22:36:25.073Z,1.800000
2019-04-27T22:38:55.532Z,1.800000
2019-04-27T22:41:25.863Z,5.500000
2019-04-27T22:43:56.291Z,5.500000
2019-04-27T22:46:26.628Z,5.500000
2019-04-27T22:48:56.984Z,5.500000
2019-04-27T22:51:27.470Z,1.800000
2019-04-27T22:53:58.138Z,1.800000
2019-04-27T22:56:28.486Z,2.500000
2019-04-27T22:59:01.001Z,2.500000
2019-04-27T23:01:34.115Z,1.600000
2019-04-27T23:04:04.520Z,1.600000
2019-04-27T23:06:34.788Z,1.000000
2019-04-27T23:09:05.134Z,1.000000
2019-04-27T23:11:35.561Z,2.700000
2019-04-27T23:14:05.905Z,2.700000
2019-04-27T23:16:36.270Z,2.100000
2019-04-27T23:19:06.655Z,2.100000
2019-04-27T23:21:36.997Z,1.900000
2019-04-27T23:24:07.406Z,1.900000
2019-04-27T23:26:37.741Z,1.500000
2019-04-27T23:29:13.689Z,1.500000
2019-04-27T23:31:46.025Z,2.500000
2019-04-27T23:34:16.339Z,0.800000
2019-04-27T23:36:46.644Z,0.800000
2019-04-27T23:39:16.959Z,1.200000
2019-04-27T23:41:47.359Z,1.200000
2019-04-27T23:44:17.654Z,2.100000
2019-04-27T23:46:47.859Z,2.100000
2019-04-27T23:49:18.173Z,2.000000
2019-04-27T23:51:48.477Z,2.000000
2019-04-27T23:54:18.893Z,1.800000
2019-04-27T23:56:49.198Z,1.800000
2019-04-27T23:59:24.944Z,2.700000
